Pagrindinis puslapis
METAR-TAF:

METAR-TAF

Oro uostai :

Bom Jesus da Lapa, Bahija, Brazilija

platuma: 13-16S, ilguma: 043-25W, Aukštis: 440 m

Dabartinis oras

Ataskaita buvo paskelbta 1 valandą ir 10 minutes, ne 14:00 UTC
Vėjas 8 kt iš Vakarų, svyruoja nuo Pietų/Pietvakarių ir Vakarų/Šiaurės Vakarų
Temperatūra 33°C
Drėgmė 44%
Slėgis 1012 hPa
Matomumas 10 km arba daugiau
nėra debesų žemiau 1500 m ir nėra kamuolinių lietaus debesų

METAR: SBLP 071400Z AUTO 26008KT 210V300 CAVOK 33/19 Q1012

Laikas: 12:10 (15:10 UTC)


TAF: trūkstamas

Orai ataskaitas ir orų prognozės (METAR, TAF).

turimą stotys yra geltonos ir raudonos taškus žemėlapyje.

Perkelti pele per norėdami pamatyti stoties vardą.

Tada spustelėkite, norėdami matyti oro stebėjimo ir prognozės.

Norėdami pakeisti žemėlapį: spustelėkite ant žalios mygtukų su juodo kryžiaus žemyn,; žalią mygtuką su brūkšneliu, jei norite nutolinti; arba žalių rodyklių gretimoms žemėlapius.


METAR-TAF: